Terminal Aerodrome Forecast
Issued by NWS Duluth, MN

Home | Current Version | Previous Version | Text Only | Print | Product List | Glossary On
Versions: 1 2 3 4 5 6 7 8 9 10 11 12 13 14 15 16 17 18 19 20
000
FTUS43 KDLH 291100
TAFINL
TAF
KINL 291126Z 2912/3012 30005KT P6SM SKC
     FM291500 34009G15KT P6SM FEW022 SCT200
     FM292300 29007KT P6SM SCT010 SCT200=

USA.gov is the U.S. government's official web portal to all federal, state and local government web resources and services.